YDE YCTI-YBRM
Flight info
| Callsign | YDE |
|---|---|
| Flight time | 1h 24m |
| Altitude | 8000 |
| Route | WICK BRM |
| Aircraft | BE36/L-BDFGLORY/S |
Departure
| Time | 2026-05-06 11:52 |
|---|---|
| Airport | Cockatoo Island Airport (YCTI) |
Arrival
| Time | 2026-05-06 13:16 |
|---|---|
| Airport | Broome International Airport (YBRM) |
| Time | Latitude | Longitude | Altitude | Speed | Heading |
|---|---|---|---|---|---|
| 2026-05-06 11:48 | -16.09458 | 123.60796 | 343 ft | 0 kts | 146° |
| 2026-05-06 11:50 | -16.09483 | 123.60871 | 341 ft | 26 kts | 112° |
| 2026-05-06 11:50 | -16.09610 | 123.61100 | 332 ft | 39 kts | 120° |
| 2026-05-06 11:51 | -16.09739 | 123.61324 | 322 ft | 33 kts | 122° |
| 2026-05-06 11:51 | -16.09803 | 123.61441 | 319 ft | 11 kts | 50° |
| 2026-05-06 11:51 | -16.09700 | 123.61293 | 323 ft | 60 kts | 302° |
| 2026-05-06 11:51 | -16.09400 | 123.60777 | 419 ft | 97 kts | 301° |
| 2026-05-06 11:52 | -16.09080 | 123.60145 | 676 ft | 100 kts | 300° |
| 2026-05-06 11:52 | -16.08723 | 123.59426 | 715 ft | 125 kts | 296° |
| 2026-05-06 11:52 | -16.08661 | 123.58481 | 820 ft | 138 kts | 251° |
| 2026-05-06 11:52 | -16.09260 | 123.57719 | 980 ft | 139 kts | 216° |
| 2026-05-06 11:53 | -16.10076 | 123.57173 | 1149 ft | 140 kts | 212° |
| 2026-05-06 11:53 | -16.10900 | 123.56623 | 1316 ft | 141 kts | 214° |
| 2026-05-06 11:53 | -16.11706 | 123.56043 | 1493 ft | 141 kts | 216° |
| 2026-05-06 11:53 | -16.12479 | 123.55451 | 1655 ft | 140 kts | 217° |
| 2026-05-06 11:54 | -16.13252 | 123.54839 | 1824 ft | 139 kts | 218° |
| 2026-05-06 11:54 | -16.14018 | 123.54219 | 1989 ft | 139 kts | 218° |
| 2026-05-06 11:54 | -16.14781 | 123.53597 | 2158 ft | 139 kts | 218° |
| 2026-05-06 11:54 | -16.15543 | 123.52973 | 2342 ft | 140 kts | 218° |
| 2026-05-06 11:55 | -16.16306 | 123.52348 | 2514 ft | 139 kts | 218° |
| 2026-05-06 11:55 | -16.17065 | 123.51726 | 2676 ft | 138 kts | 218° |
| 2026-05-06 11:55 | -16.17820 | 123.51107 | 2846 ft | 138 kts | 218° |
| 2026-05-06 11:55 | -16.18570 | 123.50492 | 3015 ft | 137 kts | 218° |
| 2026-05-06 11:56 | -16.19319 | 123.49878 | 3186 ft | 136 kts | 218° |
| 2026-05-06 11:56 | -16.20064 | 123.49267 | 3352 ft | 135 kts | 217° |
| 2026-05-06 11:56 | -16.20800 | 123.48663 | 3513 ft | 134 kts | 218° |
| 2026-05-06 11:56 | -16.21523 | 123.48071 | 3676 ft | 134 kts | 217° |
| 2026-05-06 11:57 | -16.22254 | 123.47473 | 3860 ft | 134 kts | 217° |
| 2026-05-06 11:57 | -16.22986 | 123.46870 | 4059 ft | 134 kts | 217° |
| 2026-05-06 11:57 | -16.23721 | 123.46266 | 4259 ft | 135 kts | 217° |
| 2026-05-06 11:57 | -16.24456 | 123.45663 | 4425 ft | 133 kts | 217° |
| 2026-05-06 11:58 | -16.25182 | 123.45067 | 4599 ft | 132 kts | 217° |
| 2026-05-06 11:58 | -16.25900 | 123.44478 | 4761 ft | 131 kts | 217° |
| 2026-05-06 11:58 | -16.26613 | 123.43892 | 4938 ft | 131 kts | 217° |
| 2026-05-06 11:58 | -16.27326 | 123.43301 | 5126 ft | 131 kts | 217° |
| 2026-05-06 11:59 | -16.28047 | 123.42715 | 5324 ft | 131 kts | 217° |
| 2026-05-06 11:59 | -16.28763 | 123.42129 | 5515 ft | 131 kts | 217° |
| 2026-05-06 11:59 | -16.29463 | 123.41550 | 5673 ft | 129 kts | 217° |
| 2026-05-06 11:59 | -16.30159 | 123.40980 | 5830 ft | 126 kts | 217° |
| 2026-05-06 12:00 | -16.30841 | 123.40419 | 5987 ft | 124 kts | 216° |
| 2026-05-06 12:00 | -16.31511 | 123.39870 | 6146 ft | 121 kts | 216° |
| 2026-05-06 12:00 | -16.32167 | 123.39331 | 6307 ft | 119 kts | 216° |
| 2026-05-06 12:00 | -16.32816 | 123.38798 | 6464 ft | 119 kts | 216° |
| 2026-05-06 12:01 | -16.33467 | 123.38263 | 6625 ft | 120 kts | 216° |
| 2026-05-06 12:01 | -16.34126 | 123.37720 | 6780 ft | 121 kts | 217° |
| 2026-05-06 12:01 | -16.34786 | 123.37178 | 6941 ft | 120 kts | 216° |
| 2026-05-06 12:01 | -16.35440 | 123.36639 | 7101 ft | 119 kts | 216° |
| 2026-05-06 12:02 | -16.36089 | 123.36107 | 7260 ft | 118 kts | 216° |
| 2026-05-06 12:02 | -16.36725 | 123.35583 | 7420 ft | 115 kts | 216° |
| 2026-05-06 12:02 | -16.37342 | 123.35079 | 7578 ft | 113 kts | 216° |
| 2026-05-06 12:02 | -16.37949 | 123.34580 | 7739 ft | 109 kts | 216° |
| 2026-05-06 12:03 | -16.38538 | 123.34098 | 7898 ft | 106 kts | 216° |
| 2026-05-06 12:03 | -16.39103 | 123.33634 | 8061 ft | 101 kts | 216° |
| 2026-05-06 12:03 | -16.39635 | 123.33197 | 8215 ft | 94 kts | 216° |
| 2026-05-06 12:03 | -16.40122 | 123.32799 | 8354 ft | 84 kts | 215° |
| 2026-05-06 12:04 | -16.40583 | 123.32422 | 8404 ft | 83 kts | 216° |
| 2026-05-06 12:04 | -16.41046 | 123.32053 | 8423 ft | 85 kts | 214° |
| 2026-05-06 12:04 | -16.41551 | 123.31664 | 8347 ft | 94 kts | 213° |
| 2026-05-06 12:04 | -16.42067 | 123.31266 | 8315 ft | 92 kts | 215° |
| 2026-05-06 12:05 | -16.42582 | 123.30843 | 8254 ft | 95 kts | 217° |
| 2026-05-06 12:05 | -16.43106 | 123.30391 | 8178 ft | 101 kts | 217° |
| 2026-05-06 12:05 | -16.43663 | 123.29932 | 8101 ft | 106 kts | 216° |
| 2026-05-06 12:05 | -16.44258 | 123.29446 | 8047 ft | 109 kts | 216° |
| 2026-05-06 12:06 | -16.44853 | 123.28960 | 8036 ft | 108 kts | 216° |
| 2026-05-06 12:06 | -16.45437 | 123.28481 | 8034 ft | 106 kts | 216° |
| 2026-05-06 12:06 | -16.46015 | 123.28006 | 8021 ft | 105 kts | 217° |
| 2026-05-06 12:06 | -16.46589 | 123.27534 | 8008 ft | 105 kts | 216° |
| 2026-05-06 12:07 | -16.47157 | 123.27065 | 8010 ft | 104 kts | 217° |
| 2026-05-06 12:07 | -16.47722 | 123.26602 | 8006 ft | 103 kts | 216° |
| 2026-05-06 12:07 | -16.48280 | 123.26141 | 8003 ft | 102 kts | 217° |
| 2026-05-06 12:07 | -16.48837 | 123.25684 | 8001 ft | 101 kts | 216° |
| 2026-05-06 12:08 | -16.49388 | 123.25231 | 7998 ft | 100 kts | 217° |
| 2026-05-06 12:08 | -16.49933 | 123.24783 | 7999 ft | 99 kts | 216° |
| 2026-05-06 12:08 | -16.50465 | 123.24344 | 7998 ft | 98 kts | 217° |
| 2026-05-06 12:08 | -16.51000 | 123.23903 | 7998 ft | 97 kts | 216° |
| 2026-05-06 12:09 | -16.51530 | 123.23468 | 8001 ft | 97 kts | 217° |
| 2026-05-06 12:09 | -16.52053 | 123.23036 | 8001 ft | 96 kts | 216° |
| 2026-05-06 12:09 | -16.52572 | 123.22609 | 8001 ft | 95 kts | 217° |
| 2026-05-06 12:09 | -16.53085 | 123.22186 | 8001 ft | 94 kts | 217° |
| 2026-05-06 12:10 | -16.53592 | 123.21767 | 8000 ft | 92 kts | 216° |
| 2026-05-06 12:10 | -16.54093 | 123.21354 | 8000 ft | 91 kts | 216° |
| 2026-05-06 12:10 | -16.54589 | 123.20945 | 7977 ft | 93 kts | 216° |
| 2026-05-06 12:10 | -16.55119 | 123.20506 | 7891 ft | 103 kts | 217° |
| 2026-05-06 12:11 | -16.55706 | 123.20019 | 7795 ft | 112 kts | 217° |
| 2026-05-06 12:11 | -16.56340 | 123.19495 | 7695 ft | 120 kts | 217° |
| 2026-05-06 12:11 | -16.57013 | 123.18939 | 7589 ft | 127 kts | 217° |
| 2026-05-06 12:11 | -16.57718 | 123.18358 | 7476 ft | 132 kts | 217° |
| 2026-05-06 12:12 | -16.58448 | 123.17758 | 7357 ft | 136 kts | 217° |
| 2026-05-06 12:12 | -16.59199 | 123.17139 | 7235 ft | 139 kts | 217° |
| 2026-05-06 12:12 | -16.59970 | 123.16503 | 7116 ft | 142 kts | 217° |
| 2026-05-06 12:12 | -16.60754 | 123.15856 | 6995 ft | 145 kts | 217° |
| 2026-05-06 12:13 | -16.61551 | 123.15198 | 6877 ft | 147 kts | 217° |
| 2026-05-06 12:13 | -16.62359 | 123.14530 | 6755 ft | 149 kts | 217° |
| 2026-05-06 12:13 | -16.63178 | 123.13854 | 6634 ft | 151 kts | 217° |
| 2026-05-06 12:13 | -16.64005 | 123.13171 | 6514 ft | 152 kts | 217° |
| 2026-05-06 12:14 | -16.64840 | 123.12481 | 6386 ft | 154 kts | 217° |
| 2026-05-06 12:14 | -16.65682 | 123.11785 | 6259 ft | 155 kts | 217° |
| 2026-05-06 12:14 | -16.66518 | 123.11094 | 6130 ft | 156 kts | 217° |
| 2026-05-06 12:14 | -16.67368 | 123.10391 | 6033 ft | 155 kts | 217° |
| 2026-05-06 12:15 | -16.68195 | 123.09709 | 6015 ft | 149 kts | 217° |
| 2026-05-06 12:15 | -16.68999 | 123.09045 | 6008 ft | 145 kts | 217° |
| 2026-05-06 12:15 | -16.69786 | 123.08397 | 6011 ft | 143 kts | 217° |
| 2026-05-06 12:15 | -16.70564 | 123.07755 | 6020 ft | 142 kts | 217° |
| 2026-05-06 12:16 | -16.71338 | 123.07114 | 6015 ft | 141 kts | 217° |
| 2026-05-06 12:16 | -16.72103 | 123.06480 | 6008 ft | 140 kts | 217° |
| 2026-05-06 12:16 | -16.72867 | 123.05850 | 6009 ft | 139 kts | 217° |
| 2026-05-06 12:16 | -16.73622 | 123.05226 | 6006 ft | 138 kts | 217° |
| 2026-05-06 12:17 | -16.74376 | 123.04604 | 6003 ft | 137 kts | 217° |
| 2026-05-06 12:17 | -16.75123 | 123.03987 | 5999 ft | 136 kts | 217° |
| 2026-05-06 12:17 | -16.75866 | 123.03372 | 6000 ft | 136 kts | 217° |
| 2026-05-06 12:17 | -16.76354 | 123.02968 | 6001 ft | 135 kts | 217° |
| 2026-05-06 12:18 | -16.77094 | 123.02358 | 6005 ft | 135 kts | 217° |
| 2026-05-06 12:18 | -16.77832 | 123.01747 | 6004 ft | 135 kts | 217° |
| 2026-05-06 12:18 | -16.78568 | 123.01139 | 6006 ft | 135 kts | 217° |
| 2026-05-06 12:18 | -16.79302 | 123.00531 | 6005 ft | 134 kts | 217° |
| 2026-05-06 12:19 | -16.80037 | 122.99925 | 6002 ft | 134 kts | 217° |
| 2026-05-06 12:19 | -16.80767 | 122.99319 | 6003 ft | 134 kts | 217° |
| 2026-05-06 12:19 | -16.81499 | 122.98714 | 6001 ft | 134 kts | 217° |
| 2026-05-06 12:19 | -16.82229 | 122.98110 | 6005 ft | 134 kts | 217° |
| 2026-05-06 12:20 | -16.82958 | 122.97507 | 6007 ft | 134 kts | 217° |
| 2026-05-06 12:20 | -16.83689 | 122.96901 | 6005 ft | 134 kts | 217° |
| 2026-05-06 12:20 | -16.84410 | 122.96304 | 6003 ft | 134 kts | 217° |
| 2026-05-06 12:20 | -16.85140 | 122.95700 | 6005 ft | 134 kts | 217° |
| 2026-05-06 12:21 | -16.85870 | 122.95096 | 6006 ft | 134 kts | 217° |
| 2026-05-06 12:21 | -16.86598 | 122.94493 | 6009 ft | 133 kts | 217° |
| 2026-05-06 12:21 | -16.87323 | 122.93892 | 6009 ft | 133 kts | 217° |
| 2026-05-06 12:21 | -16.88051 | 122.93291 | 6011 ft | 133 kts | 217° |
| 2026-05-06 12:22 | -16.88777 | 122.92690 | 6016 ft | 133 kts | 217° |
| 2026-05-06 12:22 | -16.89501 | 122.92089 | 6016 ft | 133 kts | 217° |
| 2026-05-06 12:22 | -16.90227 | 122.91487 | 6019 ft | 133 kts | 217° |
| 2026-05-06 12:22 | -16.90953 | 122.90886 | 6015 ft | 133 kts | 217° |
| 2026-05-06 12:23 | -16.91679 | 122.90284 | 6011 ft | 133 kts | 217° |
| 2026-05-06 12:23 | -16.92405 | 122.89683 | 6013 ft | 133 kts | 217° |
| 2026-05-06 12:23 | -16.93130 | 122.89081 | 6014 ft | 133 kts | 217° |
| 2026-05-06 12:23 | -16.93855 | 122.88480 | 6020 ft | 133 kts | 217° |
| 2026-05-06 12:24 | -16.94583 | 122.87878 | 6018 ft | 133 kts | 217° |
| 2026-05-06 12:24 | -16.95308 | 122.87276 | 6023 ft | 133 kts | 217° |
| 2026-05-06 12:24 | -16.95791 | 122.86877 | 6018 ft | 133 kts | 217° |
| 2026-05-06 12:24 | -16.96278 | 122.86472 | 6017 ft | 133 kts | 217° |
| 2026-05-06 12:25 | -16.97004 | 122.85871 | 6018 ft | 133 kts | 217° |
| 2026-05-06 12:25 | -16.97730 | 122.85269 | 6017 ft | 133 kts | 217° |
| 2026-05-06 12:25 | -16.98457 | 122.84666 | 6018 ft | 133 kts | 217° |
| 2026-05-06 12:25 | -16.99182 | 122.84064 | 6017 ft | 133 kts | 217° |
| 2026-05-06 12:26 | -16.99908 | 122.83462 | 6020 ft | 133 kts | 217° |
| 2026-05-06 12:26 | -17.00636 | 122.82858 | 6023 ft | 133 kts | 217° |
| 2026-05-06 12:26 | -17.01360 | 122.82257 | 6020 ft | 133 kts | 217° |
| 2026-05-06 12:26 | -17.02085 | 122.81655 | 6019 ft | 133 kts | 217° |
| 2026-05-06 12:27 | -17.02810 | 122.81054 | 6022 ft | 133 kts | 217° |
| 2026-05-06 12:27 | -17.03535 | 122.80452 | 6021 ft | 133 kts | 217° |
| 2026-05-06 12:27 | -17.04261 | 122.79850 | 6019 ft | 133 kts | 218° |
| 2026-05-06 12:27 | -17.04985 | 122.79248 | 6016 ft | 133 kts | 217° |
| 2026-05-06 12:28 | -17.05708 | 122.78649 | 6017 ft | 132 kts | 217° |
| 2026-05-06 12:28 | -17.06431 | 122.78048 | 6020 ft | 133 kts | 217° |
| 2026-05-06 12:28 | -17.07153 | 122.77447 | 6031 ft | 133 kts | 217° |
| 2026-05-06 12:28 | -17.07878 | 122.76846 | 6026 ft | 133 kts | 217° |
| 2026-05-06 12:29 | -17.08603 | 122.76243 | 6030 ft | 133 kts | 217° |
| 2026-05-06 12:29 | -17.09320 | 122.75649 | 6025 ft | 133 kts | 217° |
| 2026-05-06 12:29 | -17.10043 | 122.75047 | 6025 ft | 133 kts | 217° |
| 2026-05-06 12:29 | -17.10768 | 122.74445 | 6030 ft | 133 kts | 217° |
| 2026-05-06 12:30 | -17.11493 | 122.73842 | 6026 ft | 133 kts | 217° |
| 2026-05-06 12:30 | -17.12219 | 122.73239 | 6024 ft | 133 kts | 217° |
| 2026-05-06 12:30 | -17.12943 | 122.72638 | 6026 ft | 133 kts | 218° |
| 2026-05-06 12:30 | -17.13669 | 122.72035 | 6030 ft | 133 kts | 217° |
| 2026-05-06 12:31 | -17.14394 | 122.71433 | 6023 ft | 133 kts | 217° |
| 2026-05-06 12:31 | -17.15118 | 122.70830 | 6025 ft | 133 kts | 217° |
| 2026-05-06 12:31 | -17.15842 | 122.70229 | 6023 ft | 133 kts | 217° |
| 2026-05-06 12:31 | -17.16567 | 122.69625 | 6023 ft | 133 kts | 217° |
| 2026-05-06 12:32 | -17.17294 | 122.69020 | 6023 ft | 133 kts | 217° |
| 2026-05-06 12:32 | -17.18019 | 122.68418 | 6021 ft | 133 kts | 217° |
| 2026-05-06 12:32 | -17.18743 | 122.67816 | 6021 ft | 133 kts | 217° |
| 2026-05-06 12:32 | -17.19435 | 122.67175 | 6027 ft | 133 kts | 223° |
| 2026-05-06 12:33 | -17.20096 | 122.66499 | 6026 ft | 133 kts | 223° |
| 2026-05-06 12:33 | -17.20760 | 122.65820 | 6028 ft | 133 kts | 223° |
| 2026-05-06 12:33 | -17.21418 | 122.65151 | 6028 ft | 134 kts | 223° |
| 2026-05-06 12:33 | -17.22086 | 122.64472 | 6030 ft | 134 kts | 223° |
| 2026-05-06 12:34 | -17.22755 | 122.63795 | 6028 ft | 134 kts | 223° |
| 2026-05-06 12:34 | -17.23425 | 122.63115 | 6031 ft | 134 kts | 223° |
| 2026-05-06 12:34 | -17.24095 | 122.62438 | 6026 ft | 134 kts | 223° |
| 2026-05-06 12:34 | -17.24762 | 122.61760 | 6035 ft | 134 kts | 223° |
| 2026-05-06 12:35 | -17.25429 | 122.61084 | 6031 ft | 133 kts | 222° |
| 2026-05-06 12:35 | -17.26094 | 122.60409 | 6028 ft | 133 kts | 222° |
| 2026-05-06 12:35 | -17.26762 | 122.59733 | 6036 ft | 133 kts | 222° |
| 2026-05-06 12:35 | -17.27428 | 122.59058 | 6032 ft | 133 kts | 222° |
| 2026-05-06 12:36 | -17.28094 | 122.58382 | 6032 ft | 133 kts | 222° |
| 2026-05-06 12:36 | -17.28761 | 122.57707 | 6034 ft | 133 kts | 222° |
| 2026-05-06 12:36 | -17.29426 | 122.57033 | 6031 ft | 133 kts | 222° |
| 2026-05-06 12:36 | -17.30091 | 122.56357 | 6028 ft | 133 kts | 222° |
| 2026-05-06 12:37 | -17.30747 | 122.55692 | 6029 ft | 133 kts | 222° |
| 2026-05-06 12:37 | -17.31411 | 122.55018 | 6036 ft | 133 kts | 222° |
| 2026-05-06 12:37 | -17.32075 | 122.54345 | 6036 ft | 133 kts | 223° |
| 2026-05-06 12:37 | -17.32738 | 122.53671 | 6032 ft | 133 kts | 222° |
| 2026-05-06 12:38 | -17.33404 | 122.52995 | 6028 ft | 133 kts | 223° |
| 2026-05-06 12:38 | -17.34069 | 122.52318 | 6027 ft | 133 kts | 222° |
| 2026-05-06 12:38 | -17.34732 | 122.51646 | 6025 ft | 133 kts | 222° |
| 2026-05-06 12:38 | -17.35391 | 122.50967 | 6024 ft | 133 kts | 227° |
| 2026-05-06 12:39 | -17.35891 | 122.50137 | 5991 ft | 137 kts | 247° |
| 2026-05-06 12:39 | -17.36167 | 122.49191 | 6032 ft | 133 kts | 255° |
| 2026-05-06 12:39 | -17.36179 | 122.48204 | 5963 ft | 139 kts | 277° |
| 2026-05-06 12:39 | -17.35905 | 122.47243 | 5974 ft | 137 kts | 297° |
| 2026-05-06 12:40 | -17.35392 | 122.46413 | 5985 ft | 135 kts | 309° |
| 2026-05-06 12:40 | -17.34807 | 122.45661 | 5979 ft | 136 kts | 310° |
| 2026-05-06 12:40 | -17.34207 | 122.44892 | 5968 ft | 136 kts | 309° |
| 2026-05-06 12:40 | -17.33661 | 122.44079 | 5955 ft | 137 kts | 301° |
| 2026-05-06 12:41 | -17.33170 | 122.43225 | 5964 ft | 136 kts | 300° |
| 2026-05-06 12:41 | -17.32714 | 122.42353 | 5956 ft | 137 kts | 298° |
| 2026-05-06 12:41 | -17.32243 | 122.41491 | 5973 ft | 135 kts | 300° |
| 2026-05-06 12:41 | -17.31777 | 122.40632 | 5969 ft | 136 kts | 298° |
| 2026-05-06 12:42 | -17.31337 | 122.39754 | 5962 ft | 137 kts | 296° |
| 2026-05-06 12:42 | -17.30918 | 122.38864 | 5973 ft | 136 kts | 295° |
| 2026-05-06 12:42 | -17.30572 | 122.37938 | 5932 ft | 138 kts | 287° |
| 2026-05-06 12:42 | -17.30261 | 122.37005 | 5948 ft | 136 kts | 288° |
| 2026-05-06 12:43 | -17.29999 | 122.36057 | 5961 ft | 135 kts | 285° |
| 2026-05-06 12:43 | -17.29763 | 122.35103 | 5947 ft | 137 kts | 283° |
| 2026-05-06 12:43 | -17.29550 | 122.34129 | 5936 ft | 138 kts | 283° |
| 2026-05-06 12:43 | -17.29340 | 122.33154 | 5967 ft | 136 kts | 281° |
| 2026-05-06 12:44 | -17.29179 | 122.32197 | 6022 ft | 133 kts | 278° |
| 2026-05-06 12:44 | -17.28971 | 122.31275 | 6119 ft | 126 kts | 290° |
| 2026-05-06 12:44 | -17.28676 | 122.30420 | 6216 ft | 126 kts | 289° |
| 2026-05-06 12:44 | -17.28391 | 122.29530 | 6259 ft | 131 kts | 285° |
| 2026-05-06 12:45 | -17.28137 | 122.28583 | 6263 ft | 137 kts | 282° |
| 2026-05-06 12:45 | -17.27929 | 122.27622 | 6368 ft | 133 kts | 281° |
| 2026-05-06 12:45 | -17.27630 | 122.25676 | 6504 ft | 140 kts | 284° |
| 2026-05-06 12:46 | -17.27422 | 122.24670 | 6562 ft | 147 kts | 282° |
| 2026-05-06 12:46 | -17.26854 | 122.23765 | 6479 ft | 159 kts | 329° |
| 2026-05-06 12:46 | -17.26154 | 122.23537 | 6423 ft | 162 kts | 360° |
| 2026-05-06 12:46 | -17.25692 | 122.23546 | 6390 ft | 164 kts | 3° |
| 2026-05-06 12:47 | -17.24613 | 122.23149 | 6292 ft | 172 kts | 319° |
| 2026-05-06 12:47 | -17.23805 | 122.22206 | 6196 ft | 175 kts | 324° |
| 2026-05-06 12:47 | -17.22656 | 122.21881 | 6094 ft | 175 kts | 8° |
| 2026-05-06 12:47 | -17.21991 | 122.22128 | 6042 ft | 174 kts | 34° |
| 2026-05-06 12:48 | -17.21230 | 122.22986 | 5962 ft | 173 kts | 63° |
| 2026-05-06 12:48 | -17.21109 | 122.24206 | 5882 ft | 173 kts | 107° |
| 2026-05-06 12:48 | -17.21852 | 122.25163 | 5773 ft | 175 kts | 150° |
| 2026-05-06 12:48 | -17.23044 | 122.25369 | 5676 ft | 177 kts | 180° |
| 2026-05-06 12:49 | -17.24262 | 122.25286 | 5570 ft | 169 kts | 184° |
| 2026-05-06 12:49 | -17.25280 | 122.24881 | 5465 ft | 152 kts | 218° |
| 2026-05-06 12:49 | -17.25954 | 122.24089 | 5360 ft | 142 kts | 238° |
| 2026-05-06 12:49 | -17.26443 | 122.23229 | 5251 ft | 134 kts | 238° |
| 2026-05-06 12:50 | -17.26711 | 122.22702 | 5182 ft | 131 kts | 249° |
| 2026-05-06 12:50 | -17.26849 | 122.21785 | 5077 ft | 127 kts | 263° |
| 2026-05-06 12:50 | -17.26551 | 122.20962 | 4974 ft | 124 kts | 321° |
| 2026-05-06 12:50 | -17.26004 | 122.20295 | 4879 ft | 122 kts | 285° |
| 2026-05-06 12:51 | -17.25627 | 122.19528 | 4796 ft | 121 kts | 326° |
| 2026-05-06 12:51 | -17.24850 | 122.19472 | 4712 ft | 115 kts | 31° |
| 2026-05-06 12:51 | -17.24510 | 122.20144 | 4610 ft | 108 kts | 100° |
| 2026-05-06 12:51 | -17.24901 | 122.20851 | 4287 ft | 127 kts | 128° |
| 2026-05-06 12:52 | -17.25563 | 122.21486 | 4072 ft | 133 kts | 156° |
| 2026-05-06 12:52 | -17.26449 | 122.21771 | 3847 ft | 138 kts | 175° |
| 2026-05-06 12:52 | -17.27381 | 122.21500 | 3616 ft | 142 kts | 202° |
| 2026-05-06 12:52 | -17.28279 | 122.21062 | 3372 ft | 142 kts | 206° |
| 2026-05-06 12:53 | -17.28948 | 122.20355 | 3181 ft | 136 kts | 239° |
| 2026-05-06 12:53 | -17.29321 | 122.19736 | 3107 ft | 129 kts | 239° |
| 2026-05-06 12:53 | -17.29765 | 122.18965 | 3059 ft | 119 kts | 240° |
| 2026-05-06 12:53 | -17.30170 | 122.18247 | 3032 ft | 109 kts | 241° |
| 2026-05-06 12:54 | -17.30424 | 122.17796 | 3024 ft | 104 kts | 241° |
| 2026-05-06 12:54 | -17.30661 | 122.17374 | 3027 ft | 100 kts | 241° |
| 2026-05-06 12:54 | -17.31074 | 122.16641 | 3036 ft | 105 kts | 242° |
| 2026-05-06 12:55 | -17.31433 | 122.15964 | 3037 ft | 107 kts | 252° |
| 2026-05-06 12:55 | -17.31630 | 122.15287 | 3031 ft | 108 kts | 256° |
| 2026-05-06 12:55 | -17.31824 | 122.14527 | 3025 ft | 108 kts | 257° |
| 2026-05-06 12:55 | -17.32005 | 122.13773 | 3019 ft | 108 kts | 258° |
| 2026-05-06 12:56 | -17.32065 | 122.13515 | 3019 ft | 108 kts | 258° |
| 2026-05-06 12:56 | -17.32215 | 122.12862 | 3021 ft | 108 kts | 258° |
| 2026-05-06 12:56 | -17.32115 | 122.12135 | 3018 ft | 103 kts | 318° |
| 2026-05-06 12:56 | -17.31487 | 122.12035 | 3025 ft | 96 kts | 32° |
| 2026-05-06 12:57 | -17.31266 | 122.12200 | 3026 ft | 96 kts | 34° |
| 2026-05-06 12:57 | -17.30646 | 122.12182 | 3020 ft | 98 kts | 319° |
| 2026-05-06 12:57 | -17.30541 | 122.11512 | 3018 ft | 104 kts | 242° |
| 2026-05-06 12:57 | -17.31058 | 122.10960 | 3031 ft | 110 kts | 221° |
| 2026-05-06 12:58 | -17.31658 | 122.10427 | 3036 ft | 116 kts | 220° |
| 2026-05-06 12:58 | -17.32399 | 122.10156 | 3027 ft | 114 kts | 181° |
| 2026-05-06 12:58 | -17.33168 | 122.10084 | 3019 ft | 108 kts | 184° |
| 2026-05-06 12:58 | -17.33905 | 122.10028 | 3010 ft | 104 kts | 183° |
| 2026-05-06 12:59 | -17.34623 | 122.09979 | 2923 ft | 107 kts | 182° |
| 2026-05-06 12:59 | -17.35374 | 122.09931 | 2799 ft | 109 kts | 182° |
| 2026-05-06 12:59 | -17.36096 | 122.09887 | 2690 ft | 110 kts | 182° |
| 2026-05-06 12:59 | -17.36865 | 122.09844 | 2580 ft | 112 kts | 182° |
| 2026-05-06 13:00 | -17.37645 | 122.09798 | 2464 ft | 113 kts | 182° |
| 2026-05-06 13:00 | -17.38424 | 122.09754 | 2352 ft | 114 kts | 182° |
| 2026-05-06 13:00 | -17.39220 | 122.09709 | 2234 ft | 115 kts | 186° |
| 2026-05-06 13:00 | -17.39823 | 122.09607 | 2136 ft | 115 kts | 191° |
| 2026-05-06 13:01 | -17.40610 | 122.09429 | 2009 ft | 115 kts | 193° |
| 2026-05-06 13:01 | -17.41243 | 122.09273 | 1908 ft | 116 kts | 194° |
| 2026-05-06 13:01 | -17.42026 | 122.09073 | 1788 ft | 116 kts | 194° |
| 2026-05-06 13:01 | -17.42815 | 122.08866 | 1674 ft | 117 kts | 194° |
| 2026-05-06 13:02 | -17.43597 | 122.08660 | 1588 ft | 114 kts | 194° |
| 2026-05-06 13:02 | -17.44346 | 122.08460 | 1544 ft | 108 kts | 196° |
| 2026-05-06 13:02 | -17.44799 | 122.08278 | 1526 ft | 103 kts | 204° |
| 2026-05-06 13:02 | -17.45422 | 122.07978 | 1506 ft | 94 kts | 207° |
| 2026-05-06 13:03 | -17.46021 | 122.07673 | 1512 ft | 99 kts | 208° |
| 2026-05-06 13:03 | -17.46656 | 122.07340 | 1533 ft | 105 kts | 208° |
| 2026-05-06 13:03 | -17.47331 | 122.06981 | 1544 ft | 113 kts | 208° |
| 2026-05-06 13:03 | -17.48060 | 122.06582 | 1553 ft | 123 kts | 208° |
| 2026-05-06 13:04 | -17.48842 | 122.06153 | 1538 ft | 130 kts | 209° |
| 2026-05-06 13:04 | -17.49656 | 122.05711 | 1527 ft | 134 kts | 208° |
| 2026-05-06 13:04 | -17.50488 | 122.05256 | 1521 ft | 136 kts | 209° |
| 2026-05-06 13:04 | -17.51331 | 122.04795 | 1516 ft | 137 kts | 208° |
| 2026-05-06 13:05 | -17.52018 | 122.04562 | 1526 ft | 152 kts | 192° |
| 2026-05-06 13:05 | -17.52916 | 122.04399 | 1535 ft | 164 kts | 188° |
| 2026-05-06 13:05 | -17.53447 | 122.04325 | 1538 ft | 169 kts | 187° |
| 2026-05-06 13:05 | -17.54643 | 122.04178 | 1541 ft | 177 kts | 186° |
| 2026-05-06 13:06 | -17.55886 | 122.04049 | 1527 ft | 180 kts | 184° |
| 2026-05-06 13:06 | -17.57146 | 122.04090 | 1519 ft | 182 kts | 176° |
| 2026-05-06 13:06 | -17.58418 | 122.04201 | 1519 ft | 184 kts | 174° |
| 2026-05-06 13:06 | -17.59696 | 122.04329 | 1522 ft | 185 kts | 174° |
| 2026-05-06 13:07 | -17.60974 | 122.04467 | 1525 ft | 185 kts | 174° |
| 2026-05-06 13:07 | -17.62237 | 122.04623 | 1522 ft | 185 kts | 172° |
| 2026-05-06 13:07 | -17.63529 | 122.04801 | 1525 ft | 185 kts | 172° |
| 2026-05-06 13:07 | -17.64788 | 122.04982 | 1525 ft | 185 kts | 171° |
| 2026-05-06 13:08 | -17.66065 | 122.05168 | 1523 ft | 185 kts | 171° |
| 2026-05-06 13:08 | -17.67337 | 122.05361 | 1521 ft | 185 kts | 172° |
| 2026-05-06 13:08 | -17.68610 | 122.05554 | 1520 ft | 185 kts | 171° |
| 2026-05-06 13:08 | -17.69755 | 122.05726 | 1521 ft | 185 kts | 171° |
| 2026-05-06 13:09 | -17.71030 | 122.05917 | 1520 ft | 185 kts | 172° |
| 2026-05-06 13:09 | -17.71780 | 122.06069 | 1518 ft | 185 kts | 165° |
| 2026-05-06 13:09 | -17.72458 | 122.06265 | 1519 ft | 185 kts | 163° |
| 2026-05-06 13:09 | -17.72771 | 122.06363 | 1519 ft | 184 kts | 162° |
| 2026-05-06 13:10 | -17.73750 | 122.06685 | 1517 ft | 184 kts | 161° |
| 2026-05-06 13:10 | -17.74969 | 122.07109 | 1519 ft | 185 kts | 160° |
| 2026-05-06 13:10 | -17.76189 | 122.07537 | 1528 ft | 185 kts | 160° |
| 2026-05-06 13:10 | -17.77407 | 122.07971 | 1525 ft | 184 kts | 160° |
| 2026-05-06 13:11 | -17.78614 | 122.08411 | 1523 ft | 184 kts | 160° |
| 2026-05-06 13:11 | -17.79819 | 122.08853 | 1524 ft | 183 kts | 160° |
| 2026-05-06 13:11 | -17.81022 | 122.09292 | 1522 ft | 183 kts | 160° |
| 2026-05-06 13:11 | -17.82224 | 122.09728 | 1521 ft | 183 kts | 160° |
| 2026-05-06 13:12 | -17.83431 | 122.10153 | 1520 ft | 183 kts | 162° |
| 2026-05-06 13:12 | -17.84651 | 122.10536 | 1518 ft | 183 kts | 163° |
| 2026-05-06 13:12 | -17.85872 | 122.10910 | 1521 ft | 183 kts | 164° |
| 2026-05-06 13:12 | -17.87093 | 122.11287 | 1529 ft | 183 kts | 164° |
| 2026-05-06 13:13 | -17.88316 | 122.11668 | 1531 ft | 183 kts | 164° |
| 2026-05-06 13:13 | -17.89545 | 122.12054 | 1531 ft | 184 kts | 164° |
| 2026-05-06 13:13 | -17.90724 | 122.12423 | 1516 ft | 160 kts | 163° |
| 2026-05-06 13:13 | -17.91657 | 122.12835 | 1364 ft | 146 kts | 148° |
| 2026-05-06 13:14 | -17.92401 | 122.13561 | 1344 ft | 149 kts | 123° |
| 2026-05-06 13:14 | -17.92773 | 122.14584 | 1370 ft | 155 kts | 98° |
| 2026-05-06 13:14 | -17.92991 | 122.15634 | 1247 ft | 136 kts | 103° |
| 2026-05-06 13:14 | -17.93226 | 122.16596 | 1120 ft | 136 kts | 104° |
| 2026-05-06 13:15 | -17.93495 | 122.17543 | 1006 ft | 136 kts | 104° |
| 2026-05-06 13:15 | -17.93747 | 122.18489 | 819 ft | 122 kts | 104° |
| 2026-05-06 13:15 | -17.93947 | 122.19257 | 636 ft | 102 kts | 106° |
| 2026-05-06 13:15 | -17.94140 | 122.19975 | 471 ft | 101 kts | 107° |
| 2026-05-06 13:16 | -17.94332 | 122.20689 | 306 ft | 101 kts | 105° |
| 2026-05-06 13:16 | -17.94515 | 122.21384 | 139 ft | 96 kts | 106° |
| 2026-05-06 13:16 | -17.94679 | 122.21990 | 56 ft | 76 kts | 105° |
| 2026-05-06 13:16 | -17.94790 | 122.22411 | 52 ft | 42 kts | 106° |
| 2026-05-06 13:17 | -17.94843 | 122.22637 | 50 ft | 22 kts | 90° |
| 2026-05-06 13:17 | -17.94758 | 122.22710 | 47 ft | 15 kts | 12° |
| 2026-05-06 13:17 | -17.94683 | 122.22747 | 46 ft | 11 kts | 93° |
| 2026-05-06 13:17 | -17.94698 | 122.22814 | 45 ft | 9 kts | 103° |
| 2026-05-06 13:18 | -17.94714 | 122.22879 | 43 ft | 9 kts | 108° |
| 2026-05-06 13:18 | -17.94731 | 122.22941 | 41 ft | 8 kts | 105° |
| 2026-05-06 13:18 | -17.94745 | 122.23001 | 39 ft | 9 kts | 105° |
| 2026-05-06 13:18 | -17.94763 | 122.23065 | 37 ft | 9 kts | 102° |
| 2026-05-06 13:19 | -17.94748 | 122.23099 | 36 ft | 0 kts | 106° |